KACT/ACT METAR and TAF weather

Enter ICAO airport designator
Station Type Date Time Source
KACT METAR 2019/08/22 06:51 UTC NOAA

KACT 220651Z AUTO 19011KT 10SM CLR 28/21 A2994 RMK AO2 SLP130 T02830206 $


Station Type Date Time Source
KACT Decoded METAR 2019/08/22 06:51 UTC NOAA

Station name not available
Aug 22, 2019 - 02:51 AM EDT / 2019.08.22 0651 UTC
Wind: from the S (190 degrees) at 13 MPH (11 KT):0
Visibility: 10 mile(s):0
Sky conditions: clear
Temperature: 82.9 F (28.3 C)
Dew Point: 69.1 F (20.6 C)
Relative Humidity: 63%
Pressure (altimeter): 29.94 in. Hg (1013 hPa)
ob: KACT 220651Z AUTO 19011KT 10SM CLR 28/21 A2994 RMK AO2 SLP130 T02830206
cycle: 7

Station Type Date Time Source
KACT TAF 2019/08/22 06:22 UTC NOAA

TAF KACT 220520Z 2206/2306 17010KT P6SM FEW300

Example: see airport list